sensor_id;sensor_type;location;lat;lon;timestamp;P1;durP1;ratioP1;P2;durP2;ratioP2
22017;SDS011;11173;51.050;7.108;2023-09-30T00:09:31;2.85;;;1.83;;
22017;SDS011;11173;51.050;7.108;2023-09-30T00:19:31;2.35;;;1.90;;
22017;SDS011;11173;51.050;7.108;2023-09-30T00:29:33;2.22;;;1.40;;
22017;SDS011;11173;51.050;7.108;2023-09-30T00:39:34;2.22;;;1.95;;
22017;SDS011;11173;51.050;7.108;2023-09-30T00:49:34;4.93;;;2.45;;
22017;SDS011;11173;51.050;7.108;2023-09-30T00:59:35;3.25;;;1.83;;
22017;SDS011;11173;51.050;7.108;2023-09-30T01:09:35;3.63;;;2.22;;
22017;SDS011;11173;51.050;7.108;2023-09-30T01:19:36;3.92;;;2.40;;
22017;SDS011;11173;51.050;7.108;2023-09-30T01:29:37;7.22;;;3.03;;
22017;SDS011;11173;51.050;7.108;2023-09-30T01:39:40;4.45;;;1.60;;
22017;SDS011;11173;51.050;7.108;2023-09-30T01:49:40;4.28;;;1.92;;
22017;SDS011;11173;51.050;7.108;2023-09-30T01:59:40;4.57;;;2.78;;
22017;SDS011;11173;51.050;7.108;2023-09-30T02:09:41;1.08;;;1.00;;
22017;SDS011;11173;51.050;7.108;2023-09-30T02:19:41;0.60;;;0.50;;
22017;SDS011;11173;51.050;7.108;2023-09-30T02:29:41;0.40;;;0.32;;
22017;SDS011;11173;51.050;7.108;2023-09-30T02:39:42;1.15;;;1.00;;
22017;SDS011;11173;51.050;7.108;2023-09-30T02:49:43;5.40;;;2.20;;
22017;SDS011;11173;51.050;7.108;2023-09-30T02:59:43;2.05;;;1.20;;
22017;SDS011;11173;51.050;7.108;2023-09-30T03:09:44;2.10;;;1.90;;
22017;SDS011;11173;51.050;7.108;2023-09-30T03:19:44;4.95;;;3.28;;
22017;SDS011;11173;51.050;7.108;2023-09-30T03:29:45;3.00;;;2.28;;
22017;SDS011;11173;51.050;7.108;2023-09-30T03:39:46;0.70;;;0.70;;
22017;SDS011;11173;51.050;7.108;2023-09-30T03:49:49;0.68;;;0.68;;
22017;SDS011;11173;51.050;7.108;2023-09-30T03:59:49;1.45;;;0.90;;
22017;SDS011;11173;51.050;7.108;2023-09-30T04:09:50;2.63;;;1.52;;
22017;SDS011;11173;51.050;7.108;2023-09-30T04:19:50;3.50;;;3.15;;
22017;SDS011;11173;51.050;7.108;2023-09-30T04:29:51;4.30;;;3.00;;
22017;SDS011;11173;51.050;7.108;2023-09-30T04:39:52;6.15;;;2.42;;
22017;SDS011;11173;51.050;7.108;2023-09-30T04:49:53;6.80;;;3.53;;
22017;SDS011;11173;51.050;7.108;2023-09-30T04:59:54;15.07;;;4.47;;
22017;SDS011;11173;51.050;7.108;2023-09-30T05:09:54;4.82;;;4.07;;
22017;SDS011;11173;51.050;7.108;2023-09-30T05:19:58;3.50;;;3.20;;
22017;SDS011;11173;51.050;7.108;2023-09-30T05:29:59;12.13;;;4.30;;
22017;SDS011;11173;51.050;7.108;2023-09-30T05:39:59;5.53;;;3.72;;
22017;SDS011;11173;51.050;7.108;2023-09-30T05:50:00;8.02;;;3.13;;
22017;SDS011;11173;51.050;7.108;2023-09-30T06:00:05;10.00;;;2.20;;
22017;SDS011;11173;51.050;7.108;2023-09-30T06:10:28;4.10;;;2.60;;
22017;SDS011;11173;51.050;7.108;2023-09-30T06:20:29;7.97;;;3.08;;
22017;SDS011;11173;51.050;7.108;2023-09-30T06:30:30;5.75;;;2.63;;
22017;SDS011;11173;51.050;7.108;2023-09-30T06:40:33;16.88;;;3.25;;
22017;SDS011;11173;51.050;7.108;2023-09-30T06:50:34;3.72;;;2.60;;
22017;SDS011;11173;51.050;7.108;2023-09-30T07:00:34;2.08;;;1.98;;
22017;SDS011;11173;51.050;7.108;2023-09-30T07:10:35;10.80;;;2.97;;
22017;SDS011;11173;51.050;7.108;2023-09-30T07:20:35;5.82;;;2.83;;
22017;SDS011;11173;51.050;7.108;2023-09-30T07:30:36;9.90;;;3.05;;
22017;SDS011;11173;51.050;7.108;2023-09-30T07:40:36;2.80;;;2.38;;
22017;SDS011;11173;51.050;7.108;2023-09-30T07:50:37;1.00;;;0.90;;
22017;SDS011;11173;51.050;7.108;2023-09-30T08:00:40;1.60;;;1.50;;
22017;SDS011;11173;51.050;7.108;2023-09-30T08:10:42;1.55;;;1.45;;
22017;SDS011;11173;51.050;7.108;2023-09-30T08:20:43;0.60;;;0.60;;
22017;SDS011;11173;51.050;7.108;2023-09-30T08:30:44;1.13;;;0.93;;
22017;SDS011;11173;51.050;7.108;2023-09-30T08:40:44;0.70;;;0.70;;
22017;SDS011;11173;51.050;7.108;2023-09-30T08:50:46;0.63;;;0.63;;
22017;SDS011;11173;51.050;7.108;2023-09-30T09:00:49;0.68;;;0.68;;
22017;SDS011;11173;51.050;7.108;2023-09-30T09:10:57;0.80;;;0.73;;
22017;SDS011;11173;51.050;7.108;2023-09-30T09:21:12;3.75;;;2.20;;
22017;SDS011;11173;51.050;7.108;2023-09-30T09:31:22;1.67;;;1.17;;
22017;SDS011;11173;51.050;7.108;2023-09-30T09:41:23;2.55;;;1.65;;
22017;SDS011;11173;51.050;7.108;2023-09-30T09:51:24;1.10;;;1.00;;
22017;SDS011;11173;51.050;7.108;2023-09-30T10:01:26;1.20;;;0.75;;
22017;SDS011;11173;51.050;7.108;2023-09-30T10:11:27;0.63;;;0.45;;
22017;SDS011;11173;51.050;7.108;2023-09-30T10:21:29;1.48;;;1.08;;
22017;SDS011;11173;51.050;7.108;2023-09-30T10:31:29;0.80;;;0.77;;
22017;SDS011;11173;51.050;7.108;2023-09-30T10:51:40;0.77;;;0.77;;
22017;SDS011;11173;51.050;7.108;2023-09-30T11:01:41;0.70;;;0.40;;
22017;SDS011;11173;51.050;7.108;2023-09-30T11:11:43;0.82;;;0.60;;
22017;SDS011;11173;51.050;7.108;2023-09-30T11:21:49;0.30;;;0.30;;
22017;SDS011;11173;51.050;7.108;2023-09-30T11:31:50;0.30;;;0.30;;
22017;SDS011;11173;51.050;7.108;2023-09-30T11:41:54;0.73;;;0.70;;
22017;SDS011;11173;51.050;7.108;2023-09-30T11:51:58;0.40;;;0.40;;
22017;SDS011;11173;51.050;7.108;2023-09-30T12:02:00;0.73;;;0.65;;
22017;SDS011;11173;51.050;7.108;2023-09-30T12:12:00;2.10;;;1.02;;
22017;SDS011;11173;51.050;7.108;2023-09-30T12:22:01;1.40;;;1.20;;
22017;SDS011;11173;51.050;7.108;2023-09-30T12:32:03;0.60;;;0.40;;
22017;SDS011;11173;51.050;7.108;2023-09-30T12:42:05;1.00;;;0.82;;
22017;SDS011;11173;51.050;7.108;2023-09-30T12:52:08;1.17;;;0.90;;
22017;SDS011;11173;51.050;7.108;2023-09-30T13:02:09;1.60;;;1.50;;
22017;SDS011;11173;51.050;7.108;2023-09-30T13:12:09;1.60;;;1.08;;
22017;SDS011;11173;51.050;7.108;2023-09-30T13:22:10;0.60;;;0.40;;
22017;SDS011;11173;51.050;7.108;2023-09-30T13:32:12;0.30;;;0.30;;
22017;SDS011;11173;51.050;7.108;2023-09-30T13:42:14;0.40;;;0.22;;
22017;SDS011;11173;51.050;7.108;2023-09-30T13:52:14;1.55;;;0.70;;
22017;SDS011;11173;51.050;7.108;2023-09-30T14:02:15;1.42;;;0.93;;
22017;SDS011;11173;51.050;7.108;2023-09-30T14:12:15;0.52;;;0.50;;
22017;SDS011;11173;51.050;7.108;2023-09-30T14:22:16;0.20;;;0.20;;
22017;SDS011;11173;51.050;7.108;2023-09-30T14:32:17;1.85;;;0.98;;
22017;SDS011;11173;51.050;7.108;2023-09-30T14:42:17;0.40;;;0.40;;
22017;SDS011;11173;51.050;7.108;2023-09-30T14:52:18;1.42;;;0.50;;
22017;SDS011;11173;51.050;7.108;2023-09-30T15:02:19;0.98;;;0.38;;
22017;SDS011;11173;51.050;7.108;2023-09-30T15:12:20;0.60;;;0.60;;
22017;SDS011;11173;51.050;7.108;2023-09-30T15:22:20;0.43;;;0.30;;
22017;SDS011;11173;51.050;7.108;2023-09-30T15:32:20;0.85;;;0.68;;
22017;SDS011;11173;51.050;7.108;2023-09-30T15:42:21;0.98;;;0.88;;
22017;SDS011;11173;51.050;7.108;2023-09-30T15:52:22;0.52;;;0.52;;
22017;SDS011;11173;51.050;7.108;2023-09-30T16:02:22;0.73;;;0.73;;
22017;SDS011;11173;51.050;7.108;2023-09-30T16:12:23;0.90;;;0.90;;
22017;SDS011;11173;51.050;7.108;2023-09-30T16:22:23;1.48;;;1.17;;
22017;SDS011;11173;51.050;7.108;2023-09-30T16:32:24;1.00;;;0.90;;
22017;SDS011;11173;51.050;7.108;2023-09-30T16:42:24;1.13;;;1.00;;
22017;SDS011;11173;51.050;7.108;2023-09-30T16:52:25;1.20;;;1.10;;
22017;SDS011;11173;51.050;7.108;2023-09-30T17:02:26;1.73;;;1.10;;
22017;SDS011;11173;51.050;7.108;2023-09-30T17:12:26;1.17;;;0.90;;
22017;SDS011;11173;51.050;7.108;2023-09-30T17:22:26;2.33;;;1.05;;
22017;SDS011;11173;51.050;7.108;2023-09-30T17:32:27;2.30;;;1.35;;
22017;SDS011;11173;51.050;7.108;2023-09-30T17:42:27;2.28;;;1.50;;
22017;SDS011;11173;51.050;7.108;2023-09-30T17:52:27;1.30;;;1.15;;
22017;SDS011;11173;51.050;7.108;2023-09-30T18:02:28;2.05;;;1.20;;
22017;SDS011;11173;51.050;7.108;2023-09-30T18:12:28;1.25;;;1.13;;
22017;SDS011;11173;51.050;7.108;2023-09-30T18:22:29;2.50;;;2.15;;
22017;SDS011;11173;51.050;7.108;2023-09-30T18:32:29;2.20;;;1.70;;
22017;SDS011;11173;51.050;7.108;2023-09-30T18:42:30;1.83;;;1.70;;
22017;SDS011;11173;51.050;7.108;2023-09-30T18:52:30;2.08;;;1.80;;
22017;SDS011;11173;51.050;7.108;2023-09-30T19:02:31;2.33;;;2.08;;
22017;SDS011;11173;51.050;7.108;2023-09-30T19:12:32;2.30;;;1.40;;
22017;SDS011;11173;51.050;7.108;2023-09-30T19:22:32;3.92;;;1.75;;
22017;SDS011;11173;51.050;7.108;2023-09-30T19:32:33;2.25;;;2.05;;
22017;SDS011;11173;51.050;7.108;2023-09-30T19:42:33;2.80;;;2.15;;
22017;SDS011;11173;51.050;7.108;2023-09-30T19:52:35;2.97;;;1.85;;
22017;SDS011;11173;51.050;7.108;2023-09-30T20:02:36;2.53;;;1.52;;
22017;SDS011;11173;51.050;7.108;2023-09-30T20:12:36;2.90;;;2.33;;
22017;SDS011;11173;51.050;7.108;2023-09-30T20:22:37;2.92;;;2.05;;
22017;SDS011;11173;51.050;7.108;2023-09-30T20:32:38;2.30;;;2.10;;
22017;SDS011;11173;51.050;7.108;2023-09-30T20:42:39;4.13;;;2.22;;
22017;SDS011;11173;51.050;7.108;2023-09-30T20:52:40;2.70;;;2.13;;
22017;SDS011;11173;51.050;7.108;2023-09-30T21:02:41;2.00;;;1.75;;
22017;SDS011;11173;51.050;7.108;2023-09-30T21:12:41;1.73;;;1.63;;
22017;SDS011;11173;51.050;7.108;2023-09-30T21:22:42;2.88;;;2.20;;
22017;SDS011;11173;51.050;7.108;2023-09-30T21:32:44;2.45;;;2.00;;
22017;SDS011;11173;51.050;7.108;2023-09-30T21:42:44;3.67;;;1.70;;
22017;SDS011;11173;51.050;7.108;2023-09-30T21:52:45;2.08;;;1.65;;
22017;SDS011;11173;51.050;7.108;2023-09-30T22:02:45;3.13;;;2.33;;
22017;SDS011;11173;51.050;7.108;2023-09-30T22:12:48;3.65;;;2.45;;
22017;SDS011;11173;51.050;7.108;2023-09-30T22:22:48;3.80;;;3.15;;
22017;SDS011;11173;51.050;7.108;2023-09-30T22:32:51;4.70;;;3.10;;
22017;SDS011;11173;51.050;7.108;2023-09-30T22:42:52;3.25;;;2.95;;
22017;SDS011;11173;51.050;7.108;2023-09-30T22:52:55;3.38;;;2.90;;
22017;SDS011;11173;51.050;7.108;2023-09-30T23:02:55;5.82;;;3.20;;
22017;SDS011;11173;51.050;7.108;2023-09-30T23:12:56;3.42;;;2.78;;
22017;SDS011;11173;51.050;7.108;2023-09-30T23:22:57;3.60;;;2.63;;
22017;SDS011;11173;51.050;7.108;2023-09-30T23:32:59;2.42;;;2.20;;
22017;SDS011;11173;51.050;7.108;2023-09-30T23:43:02;1.65;;;1.40;;
22017;SDS011;11173;51.050;7.108;2023-09-30T23:53:03;1.35;;;0.88;;
